sensor_id;sensor_type;location;lat;lon;timestamp;pressure;altitude;pressure_sealevel;temperature;humidity
2675;BME280;1347;42.122;24.746;2023-01-28T00:00:11;98829.41;;;4.34;87.51
2675;BME280;1347;42.122;24.746;2023-01-28T00:02:38;98830.09;;;4.31;86.70
2675;BME280;1347;42.122;24.746;2023-01-28T00:05:06;98827.28;;;4.28;87.00
2675;BME280;1347;42.122;24.746;2023-01-28T00:07:33;98831.94;;;4.27;87.15
2675;BME280;1347;42.122;24.746;2023-01-28T00:10:01;98828.84;;;4.29;87.08
2675;BME280;1347;42.122;24.746;2023-01-28T00:12:28;98835.97;;;4.33;86.97
2675;BME280;1347;42.122;24.746;2023-01-28T00:14:55;98835.06;;;4.29;86.96
2675;BME280;1347;42.122;24.746;2023-01-28T00:17:22;98835.78;;;4.26;86.46
2675;BME280;1347;42.122;24.746;2023-01-28T00:19:48;98830.69;;;4.25;86.65
2675;BME280;1347;42.122;24.746;2023-01-28T00:22:15;98836.47;;;4.23;87.11
2675;BME280;1347;42.122;24.746;2023-01-28T00:24:42;98837.47;;;4.19;87.44
2675;BME280;1347;42.122;24.746;2023-01-28T00:27:11;98838.28;;;4.19;87.04
2675;BME280;1347;42.122;24.746;2023-01-28T00:29:37;98832.06;;;4.19;86.63
2675;BME280;1347;42.122;24.746;2023-01-28T00:32:05;98831.25;;;4.18;87.02
2675;BME280;1347;42.122;24.746;2023-01-28T00:34:31;98847.13;;;4.16;86.86
2675;BME280;1347;42.122;24.746;2023-01-28T00:36:58;98849.91;;;4.20;87.35
2675;BME280;1347;42.122;24.746;2023-01-28T00:39:26;98847.91;;;4.17;87.20
2675;BME280;1347;42.122;24.746;2023-01-28T00:41:53;98865.72;;;4.18;87.61
2675;BME280;1347;42.122;24.746;2023-01-28T00:44:21;98872.75;;;4.19;86.92
2675;BME280;1347;42.122;24.746;2023-01-28T00:46:48;98872.75;;;4.19;87.51
2675;BME280;1347;42.122;24.746;2023-01-28T00:49:15;98878.97;;;4.19;87.24
2675;BME280;1347;42.122;24.746;2023-01-28T00:51:42;98880.69;;;4.12;87.42
2675;BME280;1347;42.122;24.746;2023-01-28T00:54:10;98881.66;;;4.19;87.44
2675;BME280;1347;42.122;24.746;2023-01-28T00:56:37;98873.09;;;4.17;87.36
2675;BME280;1347;42.122;24.746;2023-01-28T00:59:04;98874.56;;;4.15;87.44
2675;BME280;1347;42.122;24.746;2023-01-28T01:01:33;98883.84;;;4.14;87.73
2675;BME280;1347;42.122;24.746;2023-01-28T01:04:00;98886.66;;;4.17;87.62
2675;BME280;1347;42.122;24.746;2023-01-28T01:06:29;98885.44;;;4.15;87.22
2675;BME280;1347;42.122;24.746;2023-01-28T01:08:56;98888.47;;;4.13;87.85
2675;BME280;1347;42.122;24.746;2023-01-28T01:11:23;98889.25;;;4.14;87.62
2675;BME280;1347;42.122;24.746;2023-01-28T01:13:51;98885.19;;;4.07;87.46
2675;BME280;1347;42.122;24.746;2023-01-28T01:16:20;98888.28;;;4.06;87.22
2675;BME280;1347;42.122;24.746;2023-01-28T01:18:49;98879.09;;;4.11;87.24
2675;BME280;1347;42.122;24.746;2023-01-28T01:21:18;98875.94;;;4.08;87.58
2675;BME280;1347;42.122;24.746;2023-01-28T01:23:46;98886.44;;;4.10;87.40
2675;BME280;1347;42.122;24.746;2023-01-28T01:26:13;98885.66;;;4.10;87.42
2675;BME280;1347;42.122;24.746;2023-01-28T01:28:40;98887.34;;;4.14;87.29
2675;BME280;1347;42.122;24.746;2023-01-28T01:31:11;98884.19;;;4.00;87.12
2675;BME280;1347;42.122;24.746;2023-01-28T01:33:39;98887.81;;;4.04;87.01
2675;BME280;1347;42.122;24.746;2023-01-28T01:36:09;98894.50;;;4.06;87.21
2675;BME280;1347;42.122;24.746;2023-01-28T01:38:36;98890.28;;;4.09;86.99
2675;BME280;1347;42.122;24.746;2023-01-28T01:41:04;98894.25;;;4.12;87.05
2675;BME280;1347;42.122;24.746;2023-01-28T01:43:46;98898.41;;;4.09;87.22
2675;BME280;1347;42.122;24.746;2023-01-28T01:46:16;98897.28;;;4.10;87.40
2675;BME280;1347;42.122;24.746;2023-01-28T01:48:45;98897.41;;;4.14;87.14
2675;BME280;1347;42.122;24.746;2023-01-28T01:51:15;98898.06;;;4.11;87.33
2675;BME280;1347;42.122;24.746;2023-01-28T01:53:47;98904.53;;;4.06;86.90
2675;BME280;1347;42.122;24.746;2023-01-28T01:56:18;98903.50;;;4.11;86.60
2675;BME280;1347;42.122;24.746;2023-01-28T01:58:49;98918.66;;;4.12;86.54
2675;BME280;1347;42.122;24.746;2023-01-28T02:01:18;98912.44;;;4.11;86.36
2675;BME280;1347;42.122;24.746;2023-01-28T02:03:52;98905.88;;;4.12;86.69
2675;BME280;1347;42.122;24.746;2023-01-28T02:06:22;98917.06;;;4.11;85.79
2675;BME280;1347;42.122;24.746;2023-01-28T02:08:52;98911.19;;;4.08;86.01
2675;BME280;1347;42.122;24.746;2023-01-28T02:11:21;98924.06;;;4.12;86.05
2675;BME280;1347;42.122;24.746;2023-01-28T02:13:53;98916.72;;;4.12;85.71
2675;BME280;1347;42.122;24.746;2023-01-28T02:16:22;98924.19;;;4.15;85.75
2675;BME280;1347;42.122;24.746;2023-01-28T02:18:50;98929.28;;;4.17;85.48
2675;BME280;1347;42.122;24.746;2023-01-28T02:21:44;98931.19;;;4.16;85.73
2675;BME280;1347;42.122;24.746;2023-01-28T02:24:42;98930.84;;;4.18;85.88
2675;BME280;1347;42.122;24.746;2023-01-28T02:27:19;98938.41;;;4.12;85.52
2675;BME280;1347;42.122;24.746;2023-01-28T02:29:55;98937.50;;;4.08;85.80
2675;BME280;1347;42.122;24.746;2023-01-28T02:32:28;98941.13;;;4.12;86.18
2675;BME280;1347;42.122;24.746;2023-01-28T02:35:01;98942.25;;;4.11;85.79
2675;BME280;1347;42.122;24.746;2023-01-28T02:37:35;98943.50;;;4.14;85.76
2675;BME280;1347;42.122;24.746;2023-01-28T02:40:09;98947.81;;;4.15;85.25
2675;BME280;1347;42.122;24.746;2023-01-28T02:42:38;98954.25;;;4.10;85.09
2675;BME280;1347;42.122;24.746;2023-01-28T02:45:15;98952.66;;;4.09;85.11
2675;BME280;1347;42.122;24.746;2023-01-28T02:47:43;98945.78;;;4.12;84.97
2675;BME280;1347;42.122;24.746;2023-01-28T02:50:30;98949.94;;;4.09;85.22
2675;BME280;1347;42.122;24.746;2023-01-28T02:53:15;98950.41;;;4.11;85.12
2675;BME280;1347;42.122;24.746;2023-01-28T02:56:18;98954.94;;;4.07;84.63
2675;BME280;1347;42.122;24.746;2023-01-28T02:58:51;98948.03;;;4.10;84.64
2675;BME280;1347;42.122;24.746;2023-01-28T03:01:25;98955.38;;;4.09;84.71
2675;BME280;1347;42.122;24.746;2023-01-28T03:03:58;98967.72;;;4.06;84.18
2675;BME280;1347;42.122;24.746;2023-01-28T03:06:30;98966.91;;;4.06;84.39
2675;BME280;1347;42.122;24.746;2023-01-28T03:09:05;98958.06;;;4.09;84.85
2675;BME280;1347;42.122;24.746;2023-01-28T03:11:55;98960.91;;;4.13;84.29
2675;BME280;1347;42.122;24.746;2023-01-28T03:14:42;98959.78;;;4.14;84.13
2675;BME280;1347;42.122;24.746;2023-01-28T03:17:33;98961.91;;;4.08;84.12
2675;BME280;1347;42.122;24.746;2023-01-28T03:20:19;98975.94;;;4.10;83.97
2675;BME280;1347;42.122;24.746;2023-01-28T03:23:09;98959.31;;;4.12;84.09
2675;BME280;1347;42.122;24.746;2023-01-28T03:25:57;98967.34;;;4.08;83.77
2675;BME280;1347;42.122;24.746;2023-01-28T03:28:43;98969.72;;;4.10;83.87
2675;BME280;1347;42.122;24.746;2023-01-28T03:31:31;98956.16;;;4.10;83.41
2675;BME280;1347;42.122;24.746;2023-01-28T03:34:19;98964.63;;;4.08;83.50
2675;BME280;1347;42.122;24.746;2023-01-28T03:37:04;98949.16;;;4.08;83.26
2675;BME280;1347;42.122;24.746;2023-01-28T03:39:33;98976.97;;;4.05;83.03
2675;BME280;1347;42.122;24.746;2023-01-28T03:42:03;98968.72;;;4.02;83.21
2675;BME280;1347;42.122;24.746;2023-01-28T03:44:31;98982.72;;;4.04;83.77
2675;BME280;1347;42.122;24.746;2023-01-28T03:47:15;98968.94;;;3.97;83.48
2675;BME280;1347;42.122;24.746;2023-01-28T03:49:45;98981.72;;;3.96;83.62
2675;BME280;1347;42.122;24.746;2023-01-28T03:52:14;98980.00;;;3.92;83.87
2675;BME280;1347;42.122;24.746;2023-01-28T03:54:41;98980.94;;;3.96;83.84
2675;BME280;1347;42.122;24.746;2023-01-28T03:57:08;98988.94;;;3.92;83.90
2675;BME280;1347;42.122;24.746;2023-01-28T03:59:35;98976.50;;;3.91;83.75
2675;BME280;1347;42.122;24.746;2023-01-28T04:02:02;98984.97;;;3.90;83.60
2675;BME280;1347;42.122;24.746;2023-01-28T04:04:30;98991.97;;;3.91;83.32
2675;BME280;1347;42.122;24.746;2023-01-28T04:06:59;98988.47;;;3.90;83.32
2675;BME280;1347;42.122;24.746;2023-01-28T04:09:25;98991.19;;;3.90;84.03
2675;BME280;1347;42.122;24.746;2023-01-28T04:11:52;98989.59;;;3.89;84.16
2675;BME280;1347;42.122;24.746;2023-01-28T04:14:19;98981.94;;;3.91;84.21
2675;BME280;1347;42.122;24.746;2023-01-28T04:16:46;98981.94;;;3.91;84.25
2675;BME280;1347;42.122;24.746;2023-01-28T04:19:13;98987.13;;;3.84;84.02
2675;BME280;1347;42.122;24.746;2023-01-28T04:21:40;98964.31;;;3.85;84.22
2675;BME280;1347;42.122;24.746;2023-01-28T04:24:09;98987.59;;;3.86;84.29
2675;BME280;1347;42.122;24.746;2023-01-28T04:26:36;98987.22;;;3.88;83.80
2675;BME280;1347;42.122;24.746;2023-01-28T04:29:03;98994.56;;;3.87;83.69
2675;BME280;1347;42.122;24.746;2023-01-28T04:31:30;98992.66;;;3.88;83.88
2675;BME280;1347;42.122;24.746;2023-01-28T04:33:57;99001.13;;;3.86;84.16
2675;BME280;1347;42.122;24.746;2023-01-28T04:36:24;98993.53;;;3.80;84.05
2675;BME280;1347;42.122;24.746;2023-01-28T04:38:51;98998.63;;;3.81;84.19
2675;BME280;1347;42.122;24.746;2023-01-28T04:41:19;98986.22;;;3.80;84.23
2675;BME280;1347;42.122;24.746;2023-01-28T04:43:46;98998.50;;;3.78;84.15
2675;BME280;1347;42.122;24.746;2023-01-28T04:46:14;99001.91;;;3.75;84.27
2675;BME280;1347;42.122;24.746;2023-01-28T04:48:41;99011.50;;;3.72;84.12
2675;BME280;1347;42.122;24.746;2023-01-28T04:51:08;99008.66;;;3.68;84.39
2675;BME280;1347;42.122;24.746;2023-01-28T04:53:35;99013.97;;;3.65;84.29
2675;BME280;1347;42.122;24.746;2023-01-28T04:56:02;99019.41;;;3.65;84.74
2675;BME280;1347;42.122;24.746;2023-01-28T04:58:30;99026.75;;;3.64;84.44
2675;BME280;1347;42.122;24.746;2023-01-28T05:00:58;99030.09;;;3.61;84.77
2675;BME280;1347;42.122;24.746;2023-01-28T05:03:25;99029.78;;;3.63;84.70
2675;BME280;1347;42.122;24.746;2023-01-28T05:05:52;99034.41;;;3.62;84.58
2675;BME280;1347;42.122;24.746;2023-01-28T05:08:19;99041.41;;;3.63;84.60
2675;BME280;1347;42.122;24.746;2023-01-28T05:10:46;99045.72;;;3.64;84.63
2675;BME280;1347;42.122;24.746;2023-01-28T05:13:13;99038.16;;;3.70;84.59
2675;BME280;1347;42.122;24.746;2023-01-28T05:15:41;99045.94;;;3.72;84.73
2675;BME280;1347;42.122;24.746;2023-01-28T05:18:08;99046.28;;;3.70;84.45
2675;BME280;1347;42.122;24.746;2023-01-28T05:20:35;99055.66;;;3.73;84.80
2675;BME280;1347;42.122;24.746;2023-01-28T05:23:02;99044.94;;;3.76;84.60
2675;BME280;1347;42.122;24.746;2023-01-28T05:25:29;99048.88;;;3.79;84.48
2675;BME280;1347;42.122;24.746;2023-01-28T05:27:57;99047.31;;;3.78;84.46
2675;BME280;1347;42.122;24.746;2023-01-28T05:30:24;99045.06;;;3.80;84.68
2675;BME280;1347;42.122;24.746;2023-01-28T05:32:55;99049.69;;;3.79;84.60
2675;BME280;1347;42.122;24.746;2023-01-28T05:35:22;99051.72;;;3.82;84.52
2675;BME280;1347;42.122;24.746;2023-01-28T05:37:50;99062.25;;;3.84;84.44
2675;BME280;1347;42.122;24.746;2023-01-28T05:40:17;99071.25;;;3.88;84.14
2675;BME280;1347;42.122;24.746;2023-01-28T05:42:44;99052.66;;;3.86;84.41
2675;BME280;1347;42.122;24.746;2023-01-28T05:45:11;99070.16;;;3.89;83.78
2675;BME280;1347;42.122;24.746;2023-01-28T05:47:38;99073.66;;;3.89;83.69
2675;BME280;1347;42.122;24.746;2023-01-28T05:50:08;99078.41;;;3.92;83.41
2675;BME280;1347;42.122;24.746;2023-01-28T05:52:35;99074.25;;;3.95;83.65
2675;BME280;1347;42.122;24.746;2023-01-28T05:55:02;99088.47;;;3.92;83.63
2675;BME280;1347;42.122;24.746;2023-01-28T05:57:29;99075.03;;;3.95;83.43
2675;BME280;1347;42.122;24.746;2023-01-28T05:59:56;99091.31;;;3.95;83.44
2675;BME280;1347;42.122;24.746;2023-01-28T06:02:23;99096.97;;;4.02;83.93
2675;BME280;1347;42.122;24.746;2023-01-28T06:04:50;99100.00;;;4.01;83.21
2675;BME280;1347;42.122;24.746;2023-01-28T06:07:18;99111.44;;;4.06;83.13
2675;BME280;1347;42.122;24.746;2023-01-28T06:09:45;99113.47;;;4.10;83.11
2675;BME280;1347;42.122;24.746;2023-01-28T06:12:13;99118.44;;;4.07;82.67
2675;BME280;1347;42.122;24.746;2023-01-28T06:14:40;99123.66;;;4.13;82.19
2675;BME280;1347;42.122;24.746;2023-01-28T06:17:07;99122.53;;;4.14;82.35
2675;BME280;1347;42.122;24.746;2023-01-28T06:19:34;99124.09;;;4.15;82.35
2675;BME280;1347;42.122;24.746;2023-01-28T06:22:01;99127.94;;;4.14;82.75
2675;BME280;1347;42.122;24.746;2023-01-28T06:24:29;99131.56;;;4.18;82.78
2675;BME280;1347;42.122;24.746;2023-01-28T06:26:56;99130.56;;;4.22;82.77
2675;BME280;1347;42.122;24.746;2023-01-28T06:29:23;99142.66;;;4.25;82.81
2675;BME280;1347;42.122;24.746;2023-01-28T06:31:50;99127.19;;;4.25;82.54
2675;BME280;1347;42.122;24.746;2023-01-28T06:34:17;99138.81;;;4.26;82.64
2675;BME280;1347;42.122;24.746;2023-01-28T06:36:47;99143.34;;;4.34;82.68
2675;BME280;1347;42.122;24.746;2023-01-28T06:39:15;99150.25;;;4.31;82.29
2675;BME280;1347;42.122;24.746;2023-01-28T06:41:43;99150.81;;;4.25;82.69
2675;BME280;1347;42.122;24.746;2023-01-28T06:44:10;99151.16;;;4.35;82.64
2675;BME280;1347;42.122;24.746;2023-01-28T06:46:37;99161.31;;;4.38;82.81
2675;BME280;1347;42.122;24.746;2023-01-28T06:49:04;99165.63;;;4.39;82.97
2675;BME280;1347;42.122;24.746;2023-01-28T06:51:31;99168.66;;;4.38;82.77
2675;BME280;1347;42.122;24.746;2023-01-28T06:53:58;99165.88;;;4.47;82.74
2675;BME280;1347;42.122;24.746;2023-01-28T06:56:24;99167.81;;;4.46;82.27
2675;BME280;1347;42.122;24.746;2023-01-28T06:58:53;99171.75;;;4.61;82.39
2675;BME280;1347;42.122;24.746;2023-01-28T07:01:20;99171.22;;;4.67;81.75
2675;BME280;1347;42.122;24.746;2023-01-28T07:03:46;99164.28;;;4.70;81.85
2675;BME280;1347;42.122;24.746;2023-01-28T07:06:13;99174.72;;;4.80;81.94
2675;BME280;1347;42.122;24.746;2023-01-28T07:08:40;99171.66;;;4.81;81.82
2675;BME280;1347;42.122;24.746;2023-01-28T07:11:07;99183.09;;;4.87;81.53
2675;BME280;1347;42.122;24.746;2023-01-28T07:13:34;99180.47;;;4.91;82.00
2675;BME280;1347;42.122;24.746;2023-01-28T07:16:03;99187.03;;;4.90;81.23
2675;BME280;1347;42.122;24.746;2023-01-28T07:18:30;99190.09;;;5.00;81.01
2675;BME280;1347;42.122;24.746;2023-01-28T07:20:56;99193.59;;;5.13;80.92
2675;BME280;1347;42.122;24.746;2023-01-28T07:23:24;99202.41;;;5.34;80.47
2675;BME280;1347;42.122;24.746;2023-01-28T07:25:51;99191.78;;;5.29;79.19
2675;BME280;1347;42.122;24.746;2023-01-28T07:28:18;99202.41;;;5.46;79.78
2675;BME280;1347;42.122;24.746;2023-01-28T07:30:47;99205.75;;;5.68;79.05
2675;BME280;1347;42.122;24.746;2023-01-28T07:33:16;99201.16;;;5.84;78.41
2675;BME280;1347;42.122;24.746;2023-01-28T07:35:43;99210.25;;;5.88;77.90
2675;BME280;1347;42.122;24.746;2023-01-28T07:38:11;99223.84;;;5.88;78.22
2675;BME280;1347;42.122;24.746;2023-01-28T07:40:38;99210.72;;;6.06;77.47
2675;BME280;1347;42.122;24.746;2023-01-28T07:43:07;99221.84;;;6.01;77.00
2675;BME280;1347;42.122;24.746;2023-01-28T07:45:34;99223.69;;;5.97;76.50
2675;BME280;1347;42.122;24.746;2023-01-28T07:48:03;99221.19;;;5.91;76.02
2675;BME280;1347;42.122;24.746;2023-01-28T07:50:33;99224.69;;;6.04;75.89
2675;BME280;1347;42.122;24.746;2023-01-28T07:53:02;99223.31;;;6.10;75.28
2675;BME280;1347;42.122;24.746;2023-01-28T07:55:29;99231.09;;;6.40;74.86
2675;BME280;1347;42.122;24.746;2023-01-28T07:57:57;99222.00;;;6.79;73.71
2675;BME280;1347;42.122;24.746;2023-01-28T08:00:26;99232.03;;;6.91;73.36
2675;BME280;1347;42.122;24.746;2023-01-28T08:02:55;99232.13;;;8.19;71.90
2675;BME280;1347;42.122;24.746;2023-01-28T08:05:23;99239.00;;;10.32;65.45
2675;BME280;1347;42.122;24.746;2023-01-28T08:07:53;99238.63;;;11.73;59.57
2675;BME280;1347;42.122;24.746;2023-01-28T08:10:20;99237.84;;;13.83;56.79
2675;BME280;1347;42.122;24.746;2023-01-28T08:12:51;99240.94;;;15.76;50.41
2675;BME280;1347;42.122;24.746;2023-01-28T08:15:18;99240.88;;;17.75;43.91
2675;BME280;1347;42.122;24.746;2023-01-28T08:17:45;99242.22;;;17.20;42.34
2675;BME280;1347;42.122;24.746;2023-01-28T08:20:12;99237.28;;;18.17;41.01
2675;BME280;1347;42.122;24.746;2023-01-28T08:22:39;99233.47;;;18.83;38.62
2675;BME280;1347;42.122;24.746;2023-01-28T08:25:08;99251.41;;;19.15;39.20
2675;BME280;1347;42.122;24.746;2023-01-28T08:27:35;99241.28;;;20.14;37.17
2675;BME280;1347;42.122;24.746;2023-01-28T08:30:02;99259.41;;;20.35;36.05
2675;BME280;1347;42.122;24.746;2023-01-28T08:32:29;99256.16;;;20.37;35.56
2675;BME280;1347;42.122;24.746;2023-01-28T08:34:56;99255.47;;;21.25;34.21
2675;BME280;1347;42.122;24.746;2023-01-28T08:37:23;99259.84;;;21.95;32.76
2675;BME280;1347;42.122;24.746;2023-01-28T08:39:50;99263.75;;;21.97;32.56
2675;BME280;1347;42.122;24.746;2023-01-28T08:42:18;99263.22;;;23.08;31.72
2675;BME280;1347;42.122;24.746;2023-01-28T08:44:45;99266.66;;;21.59;32.59
2675;BME280;1347;42.122;24.746;2023-01-28T08:47:13;99272.72;;;23.78;31.77
2675;BME280;1347;42.122;24.746;2023-01-28T08:49:39;99263.19;;;21.90;32.00
2675;BME280;1347;42.122;24.746;2023-01-28T08:52:06;99267.81;;;22.18;32.01
2675;BME280;1347;42.122;24.746;2023-01-28T08:54:33;99277.31;;;23.04;31.21
2675;BME280;1347;42.122;24.746;2023-01-28T08:57:01;99271.50;;;22.59;32.01
2675;BME280;1347;42.122;24.746;2023-01-28T08:59:29;99271.25;;;22.44;31.11
2675;BME280;1347;42.122;24.746;2023-01-28T09:01:56;99264.13;;;20.22;33.38
2675;BME280;1347;42.122;24.746;2023-01-28T09:04:23;99277.91;;;20.13;34.17
2675;BME280;1347;42.122;24.746;2023-01-28T09:06:50;99254.81;;;19.22;34.76
2675;BME280;1347;42.122;24.746;2023-01-28T09:09:17;99267.22;;;19.18;35.14
2675;BME280;1347;42.122;24.746;2023-01-28T09:11:44;99276.41;;;18.62;35.68
2675;BME280;1347;42.122;24.746;2023-01-28T09:14:11;99267.06;;;17.93;36.20
2675;BME280;1347;42.122;24.746;2023-01-28T09:16:39;99273.91;;;17.89;36.61
2675;BME280;1347;42.122;24.746;2023-01-28T09:19:06;99271.06;;;17.46;37.30
2675;BME280;1347;42.122;24.746;2023-01-28T09:21:33;99279.97;;;16.49;38.68
2675;BME280;1347;42.122;24.746;2023-01-28T09:24:00;99261.22;;;16.34;38.86
2675;BME280;1347;42.122;24.746;2023-01-28T09:26:26;99264.72;;;16.04;39.96
2675;BME280;1347;42.122;24.746;2023-01-28T09:28:53;99259.38;;;16.84;38.72
2675;BME280;1347;42.122;24.746;2023-01-28T09:31:20;99264.50;;;18.22;37.46
2675;BME280;1347;42.122;24.746;2023-01-28T09:33:49;99261.97;;;17.45;36.83
2675;BME280;1347;42.122;24.746;2023-01-28T09:36:21;99259.97;;;16.04;38.68
2675;BME280;1347;42.122;24.746;2023-01-28T09:38:48;99267.81;;;15.72;39.27
2675;BME280;1347;42.122;24.746;2023-01-28T09:41:23;99268.84;;;15.44;39.93
2675;BME280;1347;42.122;24.746;2023-01-28T09:44:03;99270.88;;;15.85;40.30
2675;BME280;1347;42.122;24.746;2023-01-28T09:46:32;99281.84;;;15.92;39.04
2675;BME280;1347;42.122;24.746;2023-01-28T09:49:11;99279.28;;;15.26;40.35
2675;BME280;1347;42.122;24.746;2023-01-28T09:51:47;99264.84;;;15.00;41.21
2675;BME280;1347;42.122;24.746;2023-01-28T09:54:23;99257.28;;;15.12;40.95
2675;BME280;1347;42.122;24.746;2023-01-28T09:56:58;99271.78;;;14.64;40.94
2675;BME280;1347;42.122;24.746;2023-01-28T09:59:32;99256.31;;;13.86;41.84
2675;BME280;1347;42.122;24.746;2023-01-28T10:02:10;99268.94;;;13.70;42.82
2675;BME280;1347;42.122;24.746;2023-01-28T10:04:50;99266.22;;;13.62;42.83
2675;BME280;1347;42.122;24.746;2023-01-28T10:07:28;99258.34;;;13.61;43.79
2675;BME280;1347;42.122;24.746;2023-01-28T10:10:02;99267.38;;;12.90;44.76
2675;BME280;1347;42.122;24.746;2023-01-28T10:12:47;99261.47;;;12.81;45.07
2675;BME280;1347;42.122;24.746;2023-01-28T10:15:53;99272.56;;;11.98;46.55
2675;BME280;1347;42.122;24.746;2023-01-28T10:18:59;99272.09;;;11.86;47.82
2675;BME280;1347;42.122;24.746;2023-01-28T10:21:40;99265.16;;;11.51;48.22
2675;BME280;1347;42.122;24.746;2023-01-28T10:24:14;99244.44;;;11.06;48.52
2675;BME280;1347;42.122;24.746;2023-01-28T10:26:59;99258.41;;;10.90;48.76
2675;BME280;1347;42.122;24.746;2023-01-28T10:29:40;99267.03;;;10.92;49.65
2675;BME280;1347;42.122;24.746;2023-01-28T10:32:16;99266.09;;;10.74;49.14
2675;BME280;1347;42.122;24.746;2023-01-28T10:34:47;99238.97;;;10.65;49.29
2675;BME280;1347;42.122;24.746;2023-01-28T10:37:15;99263.25;;;10.30;51.16
2675;BME280;1347;42.122;24.746;2023-01-28T10:39:43;99267.81;;;10.52;50.99
2675;BME280;1347;42.122;24.746;2023-01-28T10:42:20;99270.72;;;10.70;50.87
2675;BME280;1347;42.122;24.746;2023-01-28T10:44:52;99271.34;;;10.53;51.35
2675;BME280;1347;42.122;24.746;2023-01-28T10:47:27;99263.47;;;10.48;50.72
2675;BME280;1347;42.122;24.746;2023-01-28T10:49:57;99273.41;;;10.63;51.06
2675;BME280;1347;42.122;24.746;2023-01-28T10:52:26;99264.09;;;10.34;51.91
2675;BME280;1347;42.122;24.746;2023-01-28T10:55:00;99264.88;;;10.05;52.67
2675;BME280;1347;42.122;24.746;2023-01-28T10:57:27;99263.59;;;10.28;52.39
2675;BME280;1347;42.122;24.746;2023-01-28T10:59:55;99259.75;;;10.03;53.11
2675;BME280;1347;42.122;24.746;2023-01-28T11:02:27;99267.44;;;10.20;52.86
2675;BME280;1347;42.122;24.746;2023-01-28T11:05:02;99264.38;;;10.25;52.95
2675;BME280;1347;42.122;24.746;2023-01-28T11:07:31;99260.38;;;10.19;53.24
2675;BME280;1347;42.122;24.746;2023-01-28T11:09:58;99268.78;;;10.33;52.49
2675;BME280;1347;42.122;24.746;2023-01-28T11:12:27;99264.50;;;10.06;53.16
2675;BME280;1347;42.122;24.746;2023-01-28T11:14:56;99265.31;;;9.80;53.62
2675;BME280;1347;42.122;24.746;2023-01-28T11:17:24;99270.44;;;9.82;55.09
2675;BME280;1347;42.122;24.746;2023-01-28T11:19:53;99261.50;;;9.88;53.74
2675;BME280;1347;42.122;24.746;2023-01-28T11:22:26;99265.78;;;9.56;53.77
2675;BME280;1347;42.122;24.746;2023-01-28T11:24:58;99270.31;;;9.22;55.39
2675;BME280;1347;42.122;24.746;2023-01-28T11:27:28;99262.59;;;8.82;56.44
2675;BME280;1347;42.122;24.746;2023-01-28T11:29:56;99264.00;;;8.72;57.91
2675;BME280;1347;42.122;24.746;2023-01-28T11:32:28;99263.22;;;8.72;58.45
2675;BME280;1347;42.122;24.746;2023-01-28T11:34:56;99254.56;;;8.70;58.17
2675;BME280;1347;42.122;24.746;2023-01-28T11:37:25;99243.41;;;8.78;57.57
2675;BME280;1347;42.122;24.746;2023-01-28T11:40:16;99266.31;;;8.93;58.54
2675;BME280;1347;42.122;24.746;2023-01-28T11:42:45;99264.34;;;9.16;57.06
2675;BME280;1347;42.122;24.746;2023-01-28T11:45:15;99260.44;;;8.91;56.87
2675;BME280;1347;42.122;24.746;2023-01-28T11:47:54;99260.44;;;9.14;57.95
2675;BME280;1347;42.122;24.746;2023-01-28T11:50:32;99261.22;;;9.41;56.62
2675;BME280;1347;42.122;24.746;2023-01-28T11:53:20;99264.81;;;9.45;56.75
2675;BME280;1347;42.122;24.746;2023-01-28T11:56:03;99254.09;;;9.10;56.79
2675;BME280;1347;42.122;24.746;2023-01-28T11:58:38;99253.63;;;9.04;57.61
2675;BME280;1347;42.122;24.746;2023-01-28T12:01:14;99267.03;;;8.90;58.32
2675;BME280;1347;42.122;24.746;2023-01-28T12:04:02;99251.69;;;8.82;58.85
2675;BME280;1347;42.122;24.746;2023-01-28T12:07:05;99270.88;;;8.43;60.19
2675;BME280;1347;42.122;24.746;2023-01-28T12:09:44;99268.44;;;8.38;60.26
2675;BME280;1347;42.122;24.746;2023-01-28T12:12:35;99260.09;;;8.31;60.51
2675;BME280;1347;42.122;24.746;2023-01-28T12:15:25;99276.44;;;7.93;60.43
2675;BME280;1347;42.122;24.746;2023-01-28T12:18:07;99288.72;;;7.83;61.87
2675;BME280;1347;42.122;24.746;2023-01-28T12:20:41;99282.31;;;7.95;61.61
2675;BME280;1347;42.122;24.746;2023-01-28T12:23:24;99283.25;;;7.83;62.04
2675;BME280;1347;42.122;24.746;2023-01-28T12:26:05;99279.75;;;7.83;62.14
2675;BME280;1347;42.122;24.746;2023-01-28T12:28:51;99286.00;;;7.67;63.11
2675;BME280;1347;42.122;24.746;2023-01-28T12:31:52;99275.78;;;7.80;63.14
2675;BME280;1347;42.122;24.746;2023-01-28T12:37:36;99297.88;;;7.75;63.28
2675;BME280;1347;42.122;24.746;2023-01-28T12:40:19;99286.13;;;7.90;63.37
2675;BME280;1347;42.122;24.746;2023-01-28T12:42:52;99296.28;;;8.09;62.98
2675;BME280;1347;42.122;24.746;2023-01-28T12:45:26;99309.84;;;8.05;63.02
2675;BME280;1347;42.122;24.746;2023-01-28T12:48:02;99297.31;;;7.85;64.08
2675;BME280;1347;42.122;24.746;2023-01-28T12:50:34;99302.38;;;8.02;63.51
2675;BME280;1347;42.122;24.746;2023-01-28T12:53:08;99300.09;;;8.24;63.02
2675;BME280;1347;42.122;24.746;2023-01-28T12:55:44;99308.69;;;8.06;63.22
2675;BME280;1347;42.122;24.746;2023-01-28T12:58:17;99317.34;;;8.28;63.00
2675;BME280;1347;42.122;24.746;2023-01-28T13:00:49;99315.47;;;8.12;62.94
2675;BME280;1347;42.122;24.746;2023-01-28T13:03:20;99324.25;;;7.87;63.83
2675;BME280;1347;42.122;24.746;2023-01-28T13:05:54;99327.47;;;7.73;63.93
2675;BME280;1347;42.122;24.746;2023-01-28T13:08:25;99324.66;;;7.54;65.25
2675;BME280;1347;42.122;24.746;2023-01-28T13:10:54;99313.66;;;7.66;65.51
2675;BME280;1347;42.122;24.746;2023-01-28T13:13:27;99324.75;;;7.57;65.50
2675;BME280;1347;42.122;24.746;2023-01-28T13:15:57;99324.75;;;7.57;65.81
2675;BME280;1347;42.122;24.746;2023-01-28T13:18:31;99324.31;;;7.55;65.26
2675;BME280;1347;42.122;24.746;2023-01-28T13:20:59;99330.28;;;7.45;66.13
2675;BME280;1347;42.122;24.746;2023-01-28T13:23:37;99326.00;;;7.44;65.95
2675;BME280;1347;42.122;24.746;2023-01-28T13:26:10;99326.09;;;7.16;66.19
2675;BME280;1347;42.122;24.746;2023-01-28T13:28:38;99337.22;;;6.95;67.04
2675;BME280;1347;42.122;24.746;2023-01-28T13:31:07;99325.69;;;6.71;68.47
2675;BME280;1347;42.122;24.746;2023-01-28T13:33:39;99345.22;;;6.88;68.91
2675;BME280;1347;42.122;24.746;2023-01-28T13:36:21;99339.94;;;6.95;68.77
2675;BME280;1347;42.122;24.746;2023-01-28T13:39:00;99352.34;;;6.93;68.67
2675;BME280;1347;42.122;24.746;2023-01-28T13:41:37;99352.84;;;6.83;69.54
2675;BME280;1347;42.122;24.746;2023-01-28T13:44:17;99363.41;;;6.56;70.97